Time;durP1;ratioP1;P1;durP2;ratioP2;P2;SDS_P1;SDS_P2;PMS_P1;PMS_P2;Temp;Humidity;BMP_temperature;BMP_pressure;BME280_temperature;BME280_humidity;BME280_pressure;Samples;Min_cycle;Max_cycle;Signal;HPM_P1;HPM_P2
2021/09/10 00:01:22;;;;;;;8.38;5.85;;;19.50;98.00;;;;;;5053744;28;20059;-88
2021/09/10 00:03:50;;;;;;;10.13;6.38;;;19.50;98.20;;;;;;5054043;28;20053;-87
2021/09/10 00:06:17;;;;;;;8.55;5.90;;;19.50;98.40;;;;;;5053586;28;20076;-88
2021/09/10 00:08:44;;;;;;;9.18;6.00;;;19.50;98.40;;;;;;5054065;28;20084;-88
2021/09/10 00:11:11;;;;;;;9.73;5.93;;;19.40;98.50;;;;;;5053553;28;20541;-86
2021/09/10 00:13:38;;;;;;;8.43;5.20;;;19.40;98.60;;;;;;5054001;28;20588;-88
2021/09/10 00:16:06;;;;;;;8.80;5.93;;;19.50;98.80;;;;;;5054078;28;20051;-87
2021/09/10 00:18:34;;;;;;;8.30;6.07;;;19.50;98.80;;;;;;5052787;28;20048;-88
2021/09/10 00:21:03;;;;;;;8.13;5.82;;;19.50;98.70;;;;;;5053744;28;20574;-89
2021/09/10 00:23:31;;;;;;;9.98;5.90;;;19.50;98.80;;;;;;5046258;28;20128;-88
2021/09/10 00:25:58;;;;;;;8.30;5.90;;;19.50;98.80;;;;;;5053597;28;20052;-87
2021/09/10 00:28:25;;;;;;;7.90;6.20;;;19.50;98.90;;;;;;5053685;28;20559;-89
2021/09/10 00:30:53;;;;;;;9.40;6.53;;;19.50;99.00;;;;;;5053649;28;20053;-88
2021/09/10 00:33:20;;;;;;;8.68;5.70;;;19.50;99.00;;;;;;5053617;28;20402;-88
2021/09/10 00:35:47;;;;;;;8.20;5.55;;;19.50;99.10;;;;;;5053370;28;20406;-86
2021/09/10 00:38:15;;;;;;;8.40;5.80;;;19.40;99.40;;;;;;5052682;28;20478;-86
2021/09/10 00:40:43;;;;;;;7.78;5.50;;;19.40;99.30;;;;;;5053269;28;20057;-87
2021/09/10 00:43:10;;;;;;;8.73;5.95;;;19.50;99.30;;;;;;5052013;28;20049;-87
2021/09/10 00:45:43;;;;;;;8.65;6.10;;;19.40;99.40;;;;;;5053226;28;20456;-87
2021/09/10 00:48:10;;;;;;;6.93;5.53;;;19.40;99.60;;;;;;5052831;28;20060;-86
2021/09/10 00:50:38;;;;;;;8.27;5.53;;;19.40;99.60;;;;;;5052954;28;20139;-88
2021/09/10 00:53:05;;;;;;;8.25;5.65;;;19.30;99.70;;;;;;5053056;28;20055;-86
2021/09/10 00:55:35;;;;;;;6.95;5.47;;;19.30;99.70;;;;;;5053019;28;20156;-86
2021/09/10 00:58:02;;;;;;;8.75;5.70;;;19.30;99.80;;;;;;5052951;28;20574;-88
2021/09/10 01:00:30;;;;;;;7.80;5.65;;;19.30;99.80;;;;;;5052914;28;20517;-87
2021/09/10 01:02:57;;;;;;;8.38;6.25;;;19.30;99.70;;;;;;5050115;28;20132;-87
2021/09/10 01:05:24;;;;;;;7.75;5.65;;;19.30;99.90;;;;;;5053332;28;20455;-89
2021/09/10 01:07:52;;;;;;;7.40;5.90;;;19.20;99.90;;;;;;5053312;28;20108;-90
2021/09/10 01:10:20;;;;;;;8.60;5.95;;;19.20;99.90;;;;;;5053052;28;20119;-88
2021/09/10 01:12:51;;;;;;;7.40;5.85;;;19.10;99.90;;;;;;5053042;28;20044;-86
2021/09/10 01:15:18;;;;;;;7.55;5.35;;;19.10;99.90;;;;;;5052469;28;20131;-86
2021/09/10 01:17:45;;;;;;;6.97;5.60;;;19.10;99.90;;;;;;5052687;28;20146;-87
2021/09/10 01:20:13;;;;;;;8.45;5.82;;;19.10;99.90;;;;;;5052568;28;20518;-86
2021/09/10 01:22:41;;;;;;;8.25;5.90;;;19.00;99.90;;;;;;5052624;28;20127;-86
2021/09/10 01:25:13;;;;;;;7.90;5.90;;;19.00;99.90;;;;;;5052189;28;20132;-85
2021/09/10 01:27:42;;;;;;;7.55;6.03;;;19.00;99.90;;;;;;5051812;28;20061;-84
2021/09/10 01:30:11;;;;;;;7.13;5.30;;;18.90;99.90;;;;;;5052081;28;20135;-84
2021/09/10 01:32:38;;;;;;;7.50;5.65;;;18.90;99.90;;;;;;5052295;28;20056;-85
2021/09/10 01:35:08;;;;;;;8.05;5.68;;;19.00;99.90;;;;;;5051943;28;20123;-85
2021/09/10 01:37:35;;;;;;;7.32;5.57;;;19.00;99.90;;;;;;5052249;28;20045;-86
2021/09/10 01:40:03;;;;;;;6.97;5.50;;;19.00;99.90;;;;;;5051963;28;20055;-85
2021/09/10 01:42:32;;;;;;;7.82;5.65;;;19.00;99.90;;;;;;5044160;28;20177;-85
2021/09/10 01:44:59;;;;;;;7.50;5.38;;;19.00;99.90;;;;;;5052119;28;20051;-86
2021/09/10 01:47:27;;;;;;;7.35;5.80;;;19.10;99.90;;;;;;5052214;28;20049;-87
2021/09/10 01:49:54;;;;;;;8.40;6.03;;;19.10;99.90;;;;;;5056468;28;20139;-86
2021/09/10 01:52:21;;;;;;;8.38;5.82;;;19.10;99.90;;;;;;5056102;28;20052;-87
2021/09/10 01:54:48;;;;;;;8.55;6.40;;;19.10;99.90;;;;;;5056123;28;20521;-86
2021/09/10 01:57:15;;;;;;;7.93;5.63;;;19.10;99.90;;;;;;5056102;28;20143;-87
2021/09/10 01:59:44;;;;;;;9.90;6.10;;;19.10;99.90;;;;;;5056378;28;20049;-88
2021/09/10 02:02:11;;;;;;;8.15;5.82;;;19.10;99.90;;;;;;5055972;28;20098;-86
2021/09/10 02:04:38;;;;;;;7.65;5.60;;;19.10;99.90;;;;;;5056024;28;20052;-87
2021/09/10 02:07:06;;;;;;;7.82;5.57;;;19.00;99.90;;;;;;5055674;28;20045;-85
2021/09/10 02:09:34;;;;;;;8.48;6.03;;;19.00;99.90;;;;;;5056102;28;20053;-87
2021/09/10 02:12:01;;;;;;;7.72;6.00;;;19.00;99.90;;;;;;5055081;28;20057;-87
2021/09/10 02:14:28;;;;;;;9.38;6.15;;;19.00;99.90;;;;;;5039187;28;20466;-87
2021/09/10 02:16:57;;;;;;;7.13;5.75;;;18.90;99.90;;;;;;5051288;28;20501;-87
2021/09/10 02:19:24;;;;;;;8.10;6.03;;;18.90;99.90;;;;;;5056075;28;21628;-86
2021/09/10 02:21:52;;;;;;;8.45;5.72;;;18.80;99.90;;;;;;5056041;28;20132;-87
2021/09/10 02:24:19;;;;;;;8.05;6.03;;;18.80;99.90;;;;;;5055849;28;20135;-88
2021/09/10 02:26:47;;;;;;;8.18;6.07;;;18.70;99.90;;;;;;5056092;28;20132;-88
2021/09/10 02:29:15;;;;;;;8.15;6.32;;;18.70;99.90;;;;;;5055523;28;20057;-86
2021/09/10 02:31:42;;;;;;;7.50;5.93;;;18.60;99.90;;;;;;5055626;28;20542;-88
2021/09/10 02:34:11;;;;;;;8.60;6.18;;;18.60;99.90;;;;;;5054558;28;20040;-87
2021/09/10 02:36:39;;;;;;;8.18;6.07;;;18.50;99.90;;;;;;5055807;28;20538;-88
2021/09/10 02:39:08;;;;;;;8.50;5.90;;;18.50;99.90;;;;;;5055793;28;20041;-87
2021/09/10 02:41:37;;;;;;;8.77;5.82;;;18.40;99.90;;;;;;5055545;28;20136;-88
2021/09/10 02:44:05;;;;;;;8.63;5.70;;;18.30;99.90;;;;;;5055749;28;20498;-87
2021/09/10 02:46:33;;;;;;;8.23;6.25;;;18.30;99.90;;;;;;5048173;28;20084;-88
2021/09/10 02:49:00;;;;;;;9.48;5.82;;;18.20;99.90;;;;;;5055775;28;20049;-89
2021/09/10 02:51:29;;;;;;;7.78;6.10;;;18.30;99.90;;;;;;5055766;28;20044;-88
2021/09/10 02:53:56;;;;;;;7.90;6.45;;;18.20;99.90;;;;;;5055646;28;20080;-88
2021/09/10 02:56:23;;;;;;;7.78;6.20;;;18.10;99.90;;;;;;5055442;28;20041;-87
2021/09/10 02:58:50;;;;;;;8.32;5.95;;;18.10;99.90;;;;;;5054857;28;20071;-87
2021/09/10 03:01:18;;;;;;;9.05;5.70;;;18.10;99.90;;;;;;5053823;28;20425;-87
2021/09/10 03:03:45;;;;;;;7.88;5.63;;;18.00;99.90;;;;;;5052748;28;20045;-90
2021/09/10 03:06:12;;;;;;;7.20;5.65;;;18.00;99.90;;;;;;5052661;28;20045;-86
2021/09/10 03:08:42;;;;;;;8.10;5.88;;;18.00;99.90;;;;;;5052133;28;20132;-88
2021/09/10 03:11:09;;;;;;;7.95;6.07;;;18.00;99.90;;;;;;5052500;28;20049;-88
2021/09/10 03:13:37;;;;;;;9.93;6.10;;;18.00;99.90;;;;;;5053551;28;20425;-89
2021/09/10 03:16:04;;;;;;;9.32;6.00;;;18.00;99.90;;;;;;5057217;28;20132;-90
2021/09/10 03:18:32;;;;;;;7.60;5.97;;;18.00;99.90;;;;;;5055394;28;20112;-89
2021/09/10 03:20:59;;;;;;;8.23;6.10;;;18.00;99.90;;;;;;5052792;28;20574;-87
2021/09/10 03:23:26;;;;;;;7.55;5.90;;;17.90;99.90;;;;;;5051922;28;20380;-88
2021/09/10 03:25:55;;;;;;;8.82;5.97;;;17.90;99.90;;;;;;5051943;28;20077;-87
2021/09/10 03:28:22;;;;;;;7.85;5.82;;;17.90;99.90;;;;;;5051586;28;20045;-87
2021/09/10 03:30:49;;;;;;;7.38;5.60;;;17.90;99.90;;;;;;5052375;28;20051;-89
2021/09/10 03:33:16;;;;;;;8.20;6.25;;;17.90;99.90;;;;;;5056021;28;20051;-90
2021/09/10 03:35:44;;;;;;;9.48;5.88;;;17.80;99.90;;;;;;5057807;28;20551;-91
2021/09/10 03:38:11;;;;;;;8.00;5.65;;;17.80;99.90;;;;;;5051949;28;20076;-87
2021/09/10 03:40:38;;;;;;;7.53;5.88;;;17.80;99.90;;;;;;5055236;28;20550;-88
2021/09/10 03:43:08;;;;;;;8.02;5.60;;;17.80;99.90;;;;;;5050607;28;20080;-86
2021/09/10 03:45:36;;;;;;;8.02;6.10;;;17.80;99.90;;;;;;5052441;28;20132;-87
2021/09/10 03:48:04;;;;;;;9.80;6.07;;;17.80;99.90;;;;;;5052345;28;20136;-90
2021/09/10 03:50:31;;;;;;;9.63;6.32;;;17.80;99.90;;;;;;5052580;28;20131;-86
2021/09/10 03:52:58;;;;;;;8.25;6.25;;;17.80;99.90;;;;;;5052736;28;20072;-87
2021/09/10 03:55:25;;;;;;;8.20;6.57;;;17.80;99.90;;;;;;5051445;28;20053;-87
2021/09/10 03:57:52;;;;;;;7.30;5.78;;;17.80;99.90;;;;;;5052848;28;20045;-89
2021/09/10 04:00:21;;;;;;;10.70;6.53;;;17.70;99.90;;;;;;5054815;28;20055;-89
2021/09/10 04:02:50;;;;;;;8.60;6.45;;;17.70;99.90;;;;;;5059304;28;20131;-89
2021/09/10 04:05:17;;;;;;;8.82;6.28;;;17.70;99.90;;;;;;5060084;28;20049;-91
2021/09/10 04:07:45;;;;;;;11.02;7.25;;;17.70;99.90;;;;;;5057327;28;20144;-89
2021/09/10 04:10:12;;;;;;;9.38;6.90;;;17.70;99.90;;;;;;5053724;28;20048;-88
2021/09/10 04:12:39;;;;;;;9.20;6.40;;;17.60;99.90;;;;;;5054099;28;20136;-88
2021/09/10 04:15:07;;;;;;;9.43;6.90;;;17.50;99.90;;;;;;5053954;28;20136;-87
2021/09/10 04:17:36;;;;;;;8.77;6.95;;;17.50;99.90;;;;;;5054396;28;20041;-88
2021/09/10 04:20:03;;;;;;;9.18;6.00;;;17.50;99.90;;;;;;5053437;28;20055;-90
2021/09/10 04:22:30;;;;;;;9.48;6.55;;;17.40;99.90;;;;;;5047086;28;20145;-89
2021/09/10 04:24:57;;;;;;;9.63;7.07;;;17.50;99.90;;;;;;5054828;28;20139;-89
2021/09/10 04:27:25;;;;;;;8.30;6.53;;;17.40;99.90;;;;;;5055224;28;20067;-90
2021/09/10 04:29:52;;;;;;;9.20;6.47;;;17.40;99.90;;;;;;5053556;28;20052;-89
2021/09/10 04:32:19;;;;;;;7.90;6.30;;;17.50;99.90;;;;;;5055552;28;20051;-92
2021/09/10 04:34:48;;;;;;;9.50;7.07;;;17.50;99.90;;;;;;5055458;28;20051;-91
2021/09/10 04:37:16;;;;;;;9.27;7.10;;;17.40;99.90;;;;;;5055675;28;20049;-91
2021/09/10 04:39:43;;;;;;;8.40;6.60;;;17.40;99.90;;;;;;5055185;28;20049;-91
2021/09/10 04:42:10;;;;;;;8.85;6.78;;;17.40;99.90;;;;;;5055512;28;20131;-92
2021/09/10 04:44:37;;;;;;;9.45;6.78;;;17.40;99.90;;;;;;5055459;28;20135;-91
2021/09/10 04:47:04;;;;;;;10.48;7.35;;;17.40;99.90;;;;;;5054967;28;20469;-87
2021/09/10 04:49:31;;;;;;;9.55;6.88;;;17.30;99.90;;;;;;5053239;28;20048;-88
2021/09/10 04:52:00;;;;;;;9.73;6.85;;;17.20;99.90;;;;;;5054298;28;20045;-90
2021/09/10 04:54:27;;;;;;;9.50;6.95;;;;;;;;;;5054257;28;20401;-92
2021/09/10 04:56:54;;;;;;;9.52;6.55;;;16.90;99.90;;;;;;5046843;28;20493;-92
2021/09/10 04:59:21;;;;;;;9.23;6.78;;;16.90;99.90;;;;;;5056383;28;20151;-92
2021/09/10 05:01:48;;;;;;;9.55;6.63;;;17.00;99.90;;;;;;5049419;28;20147;-91
2021/09/10 05:04:17;;;;;;;9.52;6.80;;;17.00;99.90;;;;;;5054265;28;20049;-90
2021/09/10 05:06:44;;;;;;;9.95;7.15;;;17.00;99.90;;;;;;5051236;28;20049;-90
2021/09/10 05:09:13;;;;;;;8.68;6.60;;;16.90;99.90;;;;;;5036756;28;20092;-91
2021/09/10 05:11:40;;;;;;;10.85;8.23;;;16.90;99.90;;;;;;5053374;28;20483;-81
2021/09/10 05:14:09;;;;;;;11.35;8.65;;;16.90;99.90;;;;;;5052198;28;20041;-82
2021/09/10 05:16:36;;;;;;;10.30;7.95;;;16.80;99.90;;;;;;5052354;28;20049;-84
2021/09/10 05:19:03;;;;;;;12.52;8.73;;;16.70;99.90;;;;;;5051961;28;20045;-83
2021/09/10 05:21:31;;;;;;;12.07;8.02;;;16.70;99.90;;;;;;5052224;28;20140;-83
2021/09/10 05:23:58;;;;;;;14.57;8.45;;;16.70;99.90;;;;;;5051694;28;20041;-85
2021/09/10 05:26:26;;;;;;;10.73;8.10;;;16.70;99.90;;;;;;5047771;28;20389;-83
2021/09/10 05:28:54;;;;;;;10.90;8.40;;;16.70;99.90;;;;;;5045335;28;20059;-82
2021/09/10 05:31:21;;;;;;;9.80;7.50;;;16.80;99.90;;;;;;5048420;28;20136;-83
2021/09/10 05:33:48;;;;;;;9.68;7.25;;;16.80;99.90;;;;;;5040386;28;20073;-82
2021/09/10 05:36:15;;;;;;;9.25;7.47;;;16.80;99.90;;;;;;5041178;28;20071;-82
2021/09/10 05:38:42;;;;;;;8.75;7.15;;;16.90;99.90;;;;;;5039459;28;20052;-82
2021/09/10 05:41:09;;;;;;;11.25;7.78;;;17.00;99.90;;;;;;5034184;28;20045;-81
2021/09/10 05:43:37;;;;;;;9.73;7.47;;;17.00;99.90;;;;;;5039433;28;20137;-82
2021/09/10 05:46:04;;;;;;;9.27;7.00;;;17.10;99.90;;;;;;5033429;28;20128;-82
2021/09/10 05:48:31;;;;;;;9.65;6.30;;;17.10;99.90;;;;;;5035138;28;20410;-82
2021/09/10 05:50:58;;;;;;;9.68;7.00;;;17.20;99.90;;;;;;5043764;28;20075;-82
2021/09/10 05:53:25;;;;;;;8.85;6.50;;;17.20;99.90;;;;;;5033896;28;20063;-82
2021/09/10 05:55:54;;;;;;;8.52;6.88;;;17.20;99.90;;;;;;5039292;28;20133;-82
2021/09/10 05:58:20;;;;;;;9.02;7.05;;;17.30;99.90;;;;;;5033525;28;20076;-83
2021/09/10 06:00:49;;;;;;;8.77;6.90;;;17.30;99.90;;;;;;5034589;28;20153;-82
2021/09/10 06:03:16;;;;;;;10.20;7.00;;;17.30;99.90;;;;;;5040594;28;20053;-82
2021/09/10 06:05:43;;;;;;;8.55;6.47;;;17.40;99.90;;;;;;5033271;28;20406;-82
2021/09/10 06:08:10;;;;;;;10.45;7.63;;;17.40;99.90;;;;;;5035180;28;20082;-83
2021/09/10 06:10:37;;;;;;;9.85;6.50;;;17.40;99.90;;;;;;5033215;28;20053;-83
2021/09/10 06:13:04;;;;;;;10.80;7.10;;;17.50;99.90;;;;;;5040602;28;20398;-82
2021/09/10 06:15:31;;;;;;;9.82;6.68;;;17.50;99.90;;;;;;5035340;28;20042;-82
2021/09/10 06:17:59;;;;;;;9.13;7.07;;;17.50;99.90;;;;;;5036282;28;20509;-82
2021/09/10 06:20:26;;;;;;;8.93;6.40;;;17.60;99.90;;;;;;5040763;28;20042;-82
2021/09/10 06:22:53;;;;;;;9.35;6.70;;;17.70;99.90;;;;;;5049119;28;20482;-84
2021/09/10 06:25:20;;;;;;;10.40;7.28;;;17.70;99.90;;;;;;5050572;28;20135;-82
2021/09/10 06:27:47;;;;;;;9.48;6.63;;;17.70;99.90;;;;;;5051534;28;20049;-81
2021/09/10 06:30:15;;;;;;;9.45;7.13;;;17.70;99.90;;;;;;5051159;28;20052;-82
2021/09/10 06:32:42;;;;;;;9.50;6.70;;;17.80;99.90;;;;;;5050615;28;20407;-81
2021/09/10 06:35:11;;;;;;;9.75;6.97;;;17.90;99.90;;;;;;5043742;28;20046;-81
2021/09/10 06:37:40;;;;;;;8.43;6.35;;;17.90;99.90;;;;;;5036459;28;20056;-81
2021/09/10 06:40:08;;;;;;;9.93;6.70;;;18.00;99.90;;;;;;5036690;28;20498;-82
2021/09/10 06:42:35;;;;;;;9.70;6.65;;;18.00;99.90;;;;;;5036447;28;20061;-81
2021/09/10 06:45:03;;;;;;;7.88;6.53;;;18.10;99.90;;;;;;5040536;28;20387;-84
2021/09/10 06:47:30;;;;;;;10.35;7.40;;;18.10;99.90;;;;;;5043764;28;20052;-86
2021/09/10 06:49:57;;;;;;;10.25;7.20;;;18.20;99.90;;;;;;5049595;28;20041;-83
2021/09/10 06:52:26;;;;;;;10.98;7.30;;;18.20;99.90;;;;;;5039880;28;20239;-84
2021/09/10 06:54:53;;;;;;;9.73;7.03;;;18.20;99.90;;;;;;5039173;28;20055;-84
2021/09/10 06:57:20;;;;;;;8.20;6.50;;;18.20;99.90;;;;;;5044594;28;20046;-84
2021/09/10 06:59:47;;;;;;;9.25;6.57;;;18.30;99.90;;;;;;5039234;28;20050;-83
2021/09/10 07:02:14;;;;;;;8.18;6.70;;;18.40;99.90;;;;;;5041812;28;20137;-85
2021/09/10 07:04:41;;;;;;;9.63;6.93;;;18.40;99.90;;;;;;5054098;28;20045;-81
2021/09/10 07:07:08;;;;;;;8.82;6.55;;;18.40;99.90;;;;;;5054273;28;20072;-81
2021/09/10 07:09:39;;;;;;;8.60;6.43;;;18.50;99.90;;;;;;5054640;28;20055;-81
2021/09/10 07:12:08;;;;;;;8.15;6.03;;;18.50;99.90;;;;;;5051568;28;20053;-81
2021/09/10 07:14:35;;;;;;;9.00;6.30;;;18.60;99.90;;;;;;5053935;28;20053;-82
2021/09/10 07:17:02;;;;;;;7.95;6.05;;;18.70;99.90;;;;;;5054205;28;20124;-82
2021/09/10 07:19:29;;;;;;;8.55;6.20;;;18.80;99.90;;;;;;5054222;28;20048;-82
2021/09/10 07:21:56;;;;;;;9.40;6.50;;;18.80;99.90;;;;;;5054335;28;20049;-81
2021/09/10 07:24:23;;;;;;;8.55;6.82;;;18.90;99.90;;;;;;5053747;28;20048;-80
2021/09/10 07:26:52;;;;;;;8.68;6.63;;;18.90;99.90;;;;;;5054234;28;20061;-81
2021/09/10 07:29:20;;;;;;;9.52;7.57;;;19.00;99.90;;;;;;5054241;28;20114;-80
2021/09/10 07:31:47;;;;;;;11.75;7.97;;;19.00;99.90;;;;;;5054188;28;20052;-80
2021/09/10 07:34:14;;;;;;;10.98;7.20;;;19.10;99.90;;;;;;5054068;28;20053;-80
2021/09/10 07:36:42;;;;;;;10.32;7.65;;;19.10;99.90;;;;;;5053748;28;20059;-80
2021/09/10 07:39:09;;;;;;;9.48;7.03;;;19.10;99.90;;;;;;5053318;28;20449;-80
2021/09/10 07:41:36;;;;;;;8.77;6.22;;;19.10;99.90;;;;;;5054083;28;20053;-82
2021/09/10 07:44:05;;;;;;;8.13;6.07;;;19.20;99.90;;;;;;5053267;28;20466;-86
2021/09/10 07:46:33;;;;;;;8.90;6.60;;;19.30;99.90;;;;;;5053395;28;20076;-84
2021/09/10 07:49:00;;;;;;;9.15;6.85;;;19.30;99.90;;;;;;5053758;28;20123;-83
2021/09/10 07:51:27;;;;;;;9.73;7.13;;;19.40;99.90;;;;;;5053399;28;20053;-84
2021/09/10 07:53:54;;;;;;;10.35;6.90;;;19.50;99.90;;;;;;5050260;28;20581;-82
2021/09/10 07:56:21;;;;;;;8.45;6.43;;;19.60;99.90;;;;;;5053697;28;20049;-82
2021/09/10 07:58:48;;;;;;;8.75;6.45;;;19.70;99.90;;;;;;5053720;28;20041;-83
2021/09/10 08:01:16;;;;;;;11.88;6.93;;;19.80;99.90;;;;;;5053058;28;20487;-83
2021/09/10 08:03:43;;;;;;;9.32;6.80;;;19.80;99.90;;;;;;5053205;28;20132;-83
2021/09/10 08:06:10;;;;;;;9.75;7.05;;;19.90;99.90;;;;;;5052999;28;20470;-83
2021/09/10 08:08:37;;;;;;;10.07;7.22;;;20.00;99.90;;;;;;5053922;28;20140;-83
2021/09/10 08:11:04;;;;;;;9.15;6.38;;;20.10;99.90;;;;;;5053474;28;20053;-84
2021/09/10 08:13:32;;;;;;;11.57;6.53;;;20.10;99.90;;;;;;5052417;28;20045;-84
2021/09/10 08:15:59;;;;;;;8.93;6.38;;;20.20;99.90;;;;;;5053191;28;20126;-83
2021/09/10 08:18:27;;;;;;;9.65;6.38;;;20.30;99.90;;;;;;5052826;28;20051;-85
2021/09/10 08:20:56;;;;;;;10.18;7.75;;;20.40;99.90;;;;;;5052874;28;20135;-83
2021/09/10 08:23:23;;;;;;;9.52;6.65;;;20.50;99.90;;;;;;5054167;28;20102;-83
2021/09/10 08:25:50;;;;;;;7.38;5.93;;;20.60;99.80;;;;;;5054123;28;20057;-84
2021/09/10 08:28:17;;;;;;;8.27;6.25;;;20.70;99.80;;;;;;5053308;28;20055;-84
2021/09/10 08:30:46;;;;;;;6.78;5.22;;;20.80;99.70;;;;;;5053085;28;20071;-84
2021/09/10 08:33:14;;;;;;;7.45;6.05;;;20.80;99.50;;;;;;5052879;28;20131;-84
2021/09/10 08:35:42;;;;;;;8.55;6.00;;;20.90;99.30;;;;;;5052858;28;20414;-80
2021/09/10 08:38:09;;;;;;;7.88;5.70;;;21.00;99.00;;;;;;5052432;28;20389;-80
2021/09/10 08:40:37;;;;;;;8.45;6.20;;;21.10;99.00;;;;;;5052726;28;20065;-79
2021/09/10 08:43:04;;;;;;;9.20;6.55;;;21.10;98.60;;;;;;5052967;28;20128;-79
2021/09/10 08:45:32;;;;;;;8.75;6.25;;;21.10;97.60;;;;;;5045458;28;20045;-79
2021/09/10 08:47:59;;;;;;;8.18;5.55;;;21.10;97.40;;;;;;5052184;28;20045;-85
2021/09/10 08:50:26;;;;;;;8.35;6.38;;;21.20;96.90;;;;;;5042980;28;20124;-86
2021/09/10 08:52:55;;;;;;;7.95;5.32;;;21.20;96.80;;;;;;5047858;28;20127;-89
2021/09/10 08:55:22;;;;;;;6.63;5.40;;;21.20;96.60;;;;;;5052811;28;20171;-91
2021/09/10 08:57:51;;;;;;;7.88;6.10;;;21.30;96.40;;;;;;5052511;28;20048;-85
2021/09/10 09:00:27;;;;;;;8.50;5.55;;;21.30;95.80;;;;;;5052374;28;20079;-82
2021/09/10 09:02:59;;;;;;;10.73;5.90;;;21.40;95.60;;;;;;5047974;28;20051;-80
2021/09/10 09:05:27;;;;;;;7.57;5.53;;;21.30;95.60;;;;;;5052570;28;20131;-81
2021/09/10 09:08:11;;;;;;;7.50;5.30;;;21.40;95.30;;;;;;5052574;28;20049;-82
2021/09/10 09:10:53;;;;;;;7.18;5.00;;;21.50;95.40;;;;;;5045758;28;20067;-87
2021/09/10 09:13:21;;;;;;;7.15;5.20;;;21.60;95.20;;;;;;5052601;28;20049;-91
2021/09/10 09:15:48;;;;;;;7.50;5.35;;;21.60;94.80;;;;;;5052453;28;20049;-82
2021/09/10 09:18:15;;;;;;;6.50;4.50;;;21.70;94.30;;;;;;5051393;28;20055;-84
2021/09/10 09:20:48;;;;;;;6.50;4.82;;;21.80;94.40;;;;;;5052317;28;20491;-84
2021/09/10 09:23:17;;;;;;;6.28;4.88;;;21.90;94.40;;;;;;5051685;28;20064;-83
2021/09/10 09:25:47;;;;;;;7.20;5.20;;;22.00;94.20;;;;;;5051761;28;20491;-83
2021/09/10 09:28:21;;;;;;;8.38;5.70;;;22.00;93.90;;;;;;5052212;28;20076;-84
2021/09/10 09:30:51;;;;;;;7.25;5.70;;;22.10;94.10;;;;;;5051910;28;20053;-83
2021/09/10 09:33:19;;;;;;;6.45;5.05;;;22.10;93.70;;;;;;5051727;28;20045;-83
2021/09/10 09:35:47;;;;;;;7.22;5.07;;;22.20;93.90;;;;;;5052070;28;20045;-83
2021/09/10 09:38:20;;;;;;;8.27;5.40;;;22.30;94.00;;;;;;5051521;28;20071;-83
2021/09/10 09:40:52;;;;;;;7.30;5.22;;;22.30;93.60;;;;;;5051798;28;20098;-82
2021/09/10 09:43:21;;;;;;;6.45;5.00;;;22.40;93.50;;;;;;5050032;28;20482;-82
2021/09/10 09:45:50;;;;;;;7.78;5.53;;;22.40;93.90;;;;;;5050765;28;20073;-82
2021/09/10 09:48:19;;;;;;;7.72;5.38;;;22.50;93.40;;;;;;5048864;28;20402;-82
2021/09/10 09:50:49;;;;;;;7.00;5.25;;;22.50;93.20;;;;;;5048291;28;20083;-82
2021/09/10 09:53:17;;;;;;;6.97;5.20;;;22.60;92.10;;;;;;5048968;28;20049;-82
2021/09/10 09:55:48;;;;;;;6.78;5.05;;;22.60;92.10;;;;;;5048404;28;20071;-83
2021/09/10 09:58:17;;;;;;;7.80;5.40;;;22.60;91.50;;;;;;5048226;28;20040;-83
2021/09/10 10:00:48;;;;;;;7.28;5.22;;;22.60;91.10;;;;;;5048511;28;20443;-84
2021/09/10 10:03:15;;;;;;;7.57;5.20;;;22.60;91.50;;;;;;5048509;28;20065;-83
2021/09/10 10:05:55;;;;;;;7.07;5.00;;;22.60;91.00;;;;;;5048487;28;20501;-83
2021/09/10 10:08:30;;;;;;;8.55;5.70;;;22.60;90.90;;;;;;5048768;28;20063;-82
2021/09/10 10:11:08;;;;;;;7.53;5.50;;;22.60;90.30;;;;;;5051918;28;20055;-82
2021/09/10 10:13:35;;;;;;;7.50;5.18;;;22.60;90.60;;;;;;5052719;28;20144;-81
2021/09/10 10:16:03;;;;;;;6.60;5.35;;;22.60;90.70;;;;;;5052772;28;20048;-83
2021/09/10 10:18:43;;;;;;;7.57;5.57;;;22.60;91.00;;;;;;5051947;28;20045;-82
2021/09/10 10:21:11;;;;;;;6.38;4.97;;;22.60;90.70;;;;;;5052205;28;20053;-83
2021/09/10 10:23:55;;;;;;;8.30;5.25;;;22.60;91.10;;;;;;5051528;28;20048;-83
2021/09/10 10:26:38;;;;;;;6.82;5.28;;;22.70;91.50;;;;;;5051519;28;20136;-81
2021/09/10 10:29:15;;;;;;;7.53;5.20;;;22.80;91.40;;;;;;5052344;28;20131;-81
2021/09/10 10:32:01;;;;;;;7.85;5.03;;;22.90;91.40;;;;;;5051924;28;20049;-83
2021/09/10 10:34:29;;;;;;;7.13;5.20;;;22.90;91.80;;;;;;5051744;28;20045;-83
2021/09/10 10:36:57;;;;;;;8.63;5.40;;;23.00;91.30;;;;;;5051938;28;20051;-83
2021/09/10 10:39:32;;;;;;;6.38;5.10;;;23.10;90.50;;;;;;5051536;28;20136;-83
2021/09/10 10:42:02;;;;;;;8.00;5.10;;;23.10;90.60;;;;;;5049852;28;20136;-85
2021/09/10 10:45:00;;;;;;;7.47;5.10;;;23.20;91.10;;;;;;5049071;28;20041;-84
2021/09/10 10:47:35;;;;;;;7.22;4.75;;;23.30;90.50;;;;;;5049932;28;20160;-87
2021/09/10 10:50:03;;;;;;;7.07;4.60;;;23.40;90.20;;;;;;5050406;28;20047;-83
2021/09/10 10:52:40;;;;;;;6.80;5.13;;;23.40;90.00;;;;;;5050927;28;20045;-82
2021/09/10 10:55:24;;;;;;;7.65;4.97;;;23.50;89.30;;;;;;5045562;28;20137;-85
2021/09/10 10:57:52;;;;;;;6.30;4.70;;;23.60;89.60;;;;;;5046665;28;20071;-83
2021/09/10 11:00:46;;;;;;;6.80;4.55;;;23.70;89.80;;;;;;5050347;28;20585;-79
2021/09/10 11:03:50;;;;;;;5.97;4.22;;;23.80;89.20;;;;;;5045792;28;20404;-83
2021/09/10 11:06:39;;;;;;;6.28;4.30;;;23.90;89.30;;;;;;5050867;28;20406;-81
2021/09/10 11:09:10;;;;;;;5.22;4.03;;;24.00;88.50;;;;;;5048521;28;20479;-83
2021/09/10 11:11:39;;;;;;;6.43;4.70;;;24.00;88.50;;;;;;5050616;28;20053;-82
2021/09/10 11:14:10;;;;;;;6.25;4.55;;;24.10;87.60;;;;;;5050799;28;20041;-83
2021/09/10 11:16:37;;;;;;;6.82;4.53;;;24.10;87.10;;;;;;5050778;28;20053;-83
2021/09/10 11:19:06;;;;;;;5.60;4.10;;;24.20;86.90;;;;;;5050569;28;20135;-83
2021/09/10 11:21:33;;;;;;;5.65;4.13;;;24.20;87.20;;;;;;5050861;28;20045;-83
2021/09/10 11:24:11;;;;;;;6.25;4.35;;;24.30;87.90;;;;;;5050751;28;20487;-82
2021/09/10 11:26:39;;;;;;;6.30;4.15;;;24.40;88.20;;;;;;5050127;28;20056;-83
2021/09/10 11:29:14;;;;;;;6.32;4.78;;;24.40;87.00;;;;;;5051152;28;20080;-83
2021/09/10 11:31:44;;;;;;;6.00;4.40;;;24.50;85.70;;;;;;5050412;28;20056;-82
2021/09/10 11:34:32;;;;;;;5.53;4.32;;;24.50;85.60;;;;;;5050073;28;20041;-82
2021/09/10 11:37:02;;;;;;;7.93;4.50;;;24.60;85.40;;;;;;5050006;28;20055;-81
2021/09/10 11:39:30;;;;;;;5.85;4.35;;;24.60;83.20;;;;;;5042722;28;20044;-82
2021/09/10 11:41:58;;;;;;;5.95;4.55;;;24.60;82.70;;;;;;5049132;28;20490;-81
2021/09/10 11:44:25;;;;;;;6.65;4.30;;;24.50;82.30;;;;;;5049051;28;20041;-81
2021/09/10 11:46:53;;;;;;;6.63;4.22;;;24.40;82.90;;;;;;5050059;28;20143;-82
2021/09/10 11:49:20;;;;;;;5.40;3.80;;;24.50;82.30;;;;;;5049341;28;20437;-81
2021/09/10 11:51:50;;;;;;;6.32;4.20;;;24.50;81.50;;;;;;5049578;28;20418;-81
2021/09/10 11:54:20;;;;;;;5.45;4.10;;;24.50;81.30;;;;;;5049897;28;20048;-84
2021/09/10 11:56:49;;;;;;;6.00;3.60;;;24.60;80.60;;;;;;5049155;28;20049;-84
2021/09/10 11:59:20;;;;;;;5.78;4.10;;;24.60;81.00;;;;;;5049307;28;20049;-84
2021/09/10 12:01:49;;;;;;;6.75;4.28;;;24.70;79.60;;;;;;5049608;28;20132;-81
2021/09/10 12:04:33;;;;;;;6.35;4.22;;;24.70;80.20;;;;;;5048761;28;20077;-80
2021/09/10 12:07:03;;;;;;;7.38;4.20;;;24.70;79.40;;;;;;5041598;28;20052;-80
2021/09/10 12:09:32;;;;;;;5.63;3.88;;;24.60;79.50;;;;;;5033411;28;20073;-79
2021/09/10 12:12:18;;;;;;;6.40;4.47;;;24.70;80.40;;;;;;5049381;28;20520;-80
2021/09/10 12:14:57;;;;;;;5.88;4.20;;;24.80;80.40;;;;;;5044154;28;20041;-81
2021/09/10 12:17:33;;;;;;;6.05;4.28;;;24.80;80.20;;;;;;5049368;28;20045;-80
2021/09/10 12:20:16;;;;;;;6.28;4.30;;;25.00;80.20;;;;;;5047920;28;20036;-80
2021/09/10 12:22:56;;;;;;;7.15;4.88;;;25.00;80.30;;;;;;5043686;28;20132;-79
2021/09/10 12:25:47;;;;;;;6.85;4.63;;;25.10;78.60;;;;;;5048515;28;20394;-80
2021/09/10 12:28:26;;;;;;;7.40;4.78;;;25.10;78.40;;;;;;5049288;28;20045;-79
2021/09/10 12:31:06;;;;;;;6.60;4.78;;;25.10;79.40;;;;;;5048590;28;20045;-80
2021/09/10 12:33:35;;;;;;;7.43;4.93;;;25.10;79.40;;;;;;5046038;28;20095;-80
2021/09/10 12:36:08;;;;;;;6.10;4.70;;;25.10;79.60;;;;;;5049086;28;20128;-81
2021/09/10 12:38:37;;;;;;;6.32;4.18;;;25.10;80.50;;;;;;5049291;28;20048;-80
2021/09/10 12:41:05;;;;;;;6.05;4.57;;;25.20;81.50;;;;;;5049728;28;20044;-80
2021/09/10 12:43:33;;;;;;;6.18;4.93;;;25.30;79.90;;;;;;5049776;28;20929;-82
2021/09/10 12:46:01;;;;;;;5.63;4.38;;;25.20;80.00;;;;;;5049758;28;20040;-82
2021/09/10 12:48:29;;;;;;;6.18;4.78;;;25.20;79.50;;;;;;5048753;28;20080;-83
2021/09/10 12:50:56;;;;;;;6.78;4.40;;;25.10;79.40;;;;;;5048784;28;20098;-83
2021/09/10 12:53:24;;;;;;;7.75;4.63;;;25.10;79.70;;;;;;5048476;28;20044;-82
2021/09/10 12:55:52;;;;;;;7.30;4.57;;;25.10;78.90;;;;;;5048598;28;20061;-82